Time;durP1;ratioP1;P1;durP2;ratioP2;P2;SDS_P1;SDS_P2;PMS_P1;PMS_P2;Temp;Humidity;BMP_temperature;BMP_pressure;BME280_temperature;BME280_humidity;BME280_pressure;Samples;Min_cycle;Max_cycle;Signal;HPM_P1;HPM_P2
2023/04/20 00:01:13;;;;;;;;;;;9.10;99.90;;;;;;4844481;29;21030;-64
2023/04/20 00:03:39;;;;;;;;;;;9.20;99.90;;;;;;4834726;29;19920;-64
2023/04/20 00:06:05;;;;;;;;;;;9.20;99.90;;;;;;4832396;29;19916;-64
2023/04/20 00:08:31;;;;;;;;;;;9.20;99.90;;;;;;4832125;29;19927;-64
2023/04/20 00:10:56;;;;;;;;;;;9.20;99.90;;;;;;4828219;29;19920;-64
2023/04/20 00:13:22;;;;;;;;;;;9.20;99.90;;;;;;4827806;29;20497;-63
2023/04/20 00:15:47;;;;;;;;;;;9.30;99.90;;;;;;4830386;29;19912;-64
2023/04/20 00:18:13;;;;;;;;;;;9.30;99.90;;;;;;4824629;29;19970;-65
2023/04/20 00:20:38;;;;;;;;;;;9.30;99.90;;;;;;4831767;29;20014;-64
2023/04/20 00:23:05;;;;;;;;;;;9.30;99.90;;;;;;4833130;29;19977;-63
2023/04/20 00:25:31;;;;;;;;;;;9.30;99.90;;;;;;4830700;29;19916;-63
2023/04/20 00:27:57;;;;;;;;;;;9.30;99.90;;;;;;4832843;29;19916;-63
2023/04/20 00:30:22;;;;;;;;;;;9.30;99.90;;;;;;4828168;29;21738;-64
2023/04/20 00:32:48;;;;;;;;;;;9.20;99.90;;;;;;4835464;29;19939;-63
2023/04/20 00:35:13;;;;;;;;;;;9.30;99.90;;;;;;4828792;29;19919;-63
2023/04/20 00:37:39;;;;;;;;;;;9.30;99.90;;;;;;4829828;29;19927;-63
2023/04/20 00:40:05;;;;;;;;;;;9.30;99.90;;;;;;4829222;29;19919;-63
2023/04/20 00:42:31;;;;;;;;;;;9.30;99.90;;;;;;4831873;29;19920;-63
2023/04/20 00:44:56;;;;;;;;;;;9.20;99.90;;;;;;4831937;29;19926;-63
2023/04/20 00:47:22;;;;;;;;;;;8.90;99.90;;;;;;4837404;29;20575;-63
2023/04/20 00:49:47;;;;;;;;;;;8.80;99.90;;;;;;4828876;29;20417;-64
2023/04/20 00:52:13;;;;;;;;;;;8.70;99.90;;;;;;4841717;29;19928;-64
2023/04/20 00:54:38;;;;;;;;;;;8.80;99.90;;;;;;4841541;29;19952;-64
2023/04/20 00:57:04;;;;;;;;;;;8.80;99.90;;;;;;4837875;29;20015;-64
2023/04/20 00:59:29;;;;;;;;;;;8.90;99.90;;;;;;4837416;29;19931;-64
2023/04/20 01:01:56;;;;;;;;;;;8.90;99.90;;;;;;4837923;29;20374;-63
2023/04/20 01:04:21;;;;;;;;;;;8.90;99.90;;;;;;4831637;29;19927;-63
2023/04/20 01:06:47;;;;;;;;;;;8.80;99.90;;;;;;4844454;29;19916;-62
2023/04/20 01:09:12;;;;;;;;;;;8.90;99.90;;;;;;4839236;29;20270;-62
2023/04/20 01:11:38;;;;;;;;;;;8.90;99.90;;;;;;4838642;29;20003;-63
2023/04/20 01:14:04;;;;;;;;;;;8.90;99.90;;;;;;4831228;29;19916;-63
2023/04/20 01:16:29;;;;;;;;;;;8.90;99.90;;;;;;4828626;29;20536;-63
2023/04/20 01:18:55;;;;;;;;;;;8.90;99.90;;;;;;4836796;29;19931;-62
2023/04/20 01:21:21;;;;;;;;;;;8.90;99.90;;;;;;4838564;29;19972;-63
2023/04/20 01:23:46;;;;;;;;;;;8.90;99.90;;;;;;4839399;29;20341;-62
2023/04/20 01:26:14;;;;;;;;;;;8.90;99.90;;;;;;4837519;29;20050;-63
2023/04/20 01:28:40;;;;;;;;;;;8.90;99.90;;;;;;4836642;29;19915;-63
2023/04/20 01:31:06;;;;;;;;;;;9.00;99.90;;;;;;4838557;29;19958;-63
2023/04/20 01:33:32;;;;;;;;;;;9.00;99.90;;;;;;4841654;29;19950;-63
2023/04/20 01:35:58;;;;;;;;;;;9.10;99.90;;;;;;4833540;29;19937;-64
2023/04/20 01:38:24;;;;;;;;;;;9.10;99.90;;;;;;4843024;29;19969;-63
2023/04/20 01:40:50;;;;;;;;;;;9.20;99.90;;;;;;4827511;29;19924;-63
2023/04/20 01:43:16;;;;;;;;;;;9.30;99.90;;;;;;4840679;29;19935;-63
2023/04/20 01:45:41;;;;;;;;;;;9.30;99.90;;;;;;4843725;29;19916;-63
2023/04/20 01:48:07;;;;;;;;;;;9.40;99.90;;;;;;4843498;29;19924;-63
2023/04/20 01:50:32;;;;;;;;;;;9.40;99.90;;;;;;4837655;29;19967;-63
2023/04/20 01:52:58;;;;;;;;;;;9.40;99.90;;;;;;4840519;29;20532;-64
2023/04/20 01:55:23;;;;;;;;;;;9.40;99.90;;;;;;4818815;29;19940;-63
2023/04/20 01:57:49;;;;;;;;;;;9.50;99.90;;;;;;4838849;29;19920;-63
2023/04/20 02:00:15;;;;;;;;;;;9.50;99.90;;;;;;4837770;29;19927;-63
2023/04/20 02:02:40;;;;;;;;;;;9.50;99.90;;;;;;4844327;29;19920;-63
2023/04/20 02:05:06;;;;;;;;;;;9.50;99.90;;;;;;4841050;29;19919;-63
2023/04/20 02:07:32;;;;;;;;;;;9.60;99.90;;;;;;4837173;29;19920;-63
2023/04/20 02:09:57;;;;;;;;;;;9.60;99.90;;;;;;4838003;29;19927;-63
2023/04/20 02:12:22;;;;;;;;;;;9.70;99.90;;;;;;4838745;29;20336;-63
2023/04/20 02:14:48;;;;;;;;;;;9.60;99.90;;;;;;4837125;29;19920;-64
2023/04/20 02:17:13;;;;;;;;;;;9.70;99.90;;;;;;4837671;29;19924;-64
2023/04/20 02:19:39;;;;;;;;;;;9.70;99.90;;;;;;4843392;29;20404;-64
2023/04/20 02:22:05;;;;;;;;;;;9.70;99.90;;;;;;4843003;29;19927;-64
2023/04/20 02:24:31;;;;;;;;;;;9.60;99.90;;;;;;4837175;29;20396;-64
2023/04/20 02:26:57;;;;;;;;;;;9.40;99.90;;;;;;4845067;29;19915;-64
2023/04/20 02:29:23;;;;;;;;;;;9.30;99.90;;;;;;4844622;29;19916;-64
2023/04/20 02:31:49;;;;;;;;;;;9.20;99.90;;;;;;4845527;29;19916;-64
2023/04/20 02:34:14;;;;;;;;;;;9.20;99.90;;;;;;4843908;29;19920;-64
2023/04/20 02:36:40;;;;;;;;;;;9.20;99.90;;;;;;4846929;29;20383;-64
2023/04/20 02:39:05;;;;;;;;;;;9.20;99.90;;;;;;4848132;29;19924;-64
2023/04/20 02:41:31;;;;;;;;;;;9.20;99.90;;;;;;4844587;29;21054;-64
2023/04/20 02:43:57;;;;;;;;;;;9.30;99.90;;;;;;4837620;29;20482;-64
2023/04/20 02:46:22;;;;;;;;;;;9.30;99.90;;;;;;4844757;29;20020;-65
2023/04/20 02:48:48;;;;;;;;;;;9.30;99.90;;;;;;4847209;29;20007;-64
2023/04/20 02:51:13;;;;;;;;;;;9.30;99.90;;;;;;4844964;29;19920;-64
2023/04/20 02:53:39;;;;;;;;;;;9.20;99.90;;;;;;4845765;29;20362;-64
2023/04/20 02:56:04;;;;;;;;;;;9.20;99.90;;;;;;4846652;29;20487;-64
2023/04/20 02:58:30;;;;;;;;;;;9.20;99.90;;;;;;4839099;29;19928;-64
2023/04/20 03:01:01;;;;;;;;;;;9.30;99.90;;;;;;4833430;29;20054;-64
2023/04/20 03:03:27;;;;;;;;;;;9.30;99.90;;;;;;4838586;29;20003;-64
2023/04/20 03:05:53;;;;;;;;;;;9.40;99.90;;;;;;4845850;29;19920;-65
2023/04/20 03:08:19;;;;;;;;;;;9.40;99.90;;;;;;4827966;29;19912;-64
2023/04/20 03:10:44;;;;;;;;;;;9.40;99.90;;;;;;4846051;29;19912;-64
2023/04/20 03:13:10;;;;;;;;;;;9.30;99.90;;;;;;4842390;29;19915;-64
2023/04/20 03:15:35;;;;;;;;;;;9.30;99.90;;;;;;4840543;29;19990;-64
2023/04/20 03:18:01;;;;;;;;;;;9.30;99.90;;;;;;4840004;29;19935;-64
2023/04/20 03:20:26;;;;;;;;;;;9.30;99.90;;;;;;4849647;29;19911;-64
2023/04/20 03:22:52;;;;;;;;;;;9.20;99.90;;;;;;4844918;29;19916;-64
2023/04/20 03:25:17;;;;;;;;;;;9.10;99.90;;;;;;4844965;29;20271;-64
2023/04/20 03:27:44;;;;;;;;;;;9.00;99.90;;;;;;4828553;29;19922;-65
2023/04/20 03:30:10;;;;;;;;;;;8.90;99.90;;;;;;4839847;29;20304;-64
2023/04/20 03:32:37;;;;;;;;;;;8.90;99.90;;;;;;4841703;29;19916;-64
2023/04/20 03:35:03;;;;;;;;;;;8.90;99.90;;;;;;4840969;29;20429;-64
2023/04/20 03:37:29;;;;;;;;;;;8.90;99.90;;;;;;4844363;29;20026;-64
2023/04/20 03:39:54;;;;;;;;;;;8.90;99.90;;;;;;4848602;29;19969;-64
2023/04/20 03:42:20;;;;;;;;;;;8.90;99.90;;;;;;4845290;29;20296;-64
2023/04/20 03:44:45;;;;;;;;;;;8.80;99.90;;;;;;4839317;29;19916;-63
2023/04/20 03:47:11;;;;;;;;;;;8.80;99.90;;;;;;4838873;29;20073;-64
2023/04/20 03:49:36;;;;;;;;;;;8.80;99.90;;;;;;4842285;29;19920;-64
2023/04/20 03:52:02;;;;;;;;;;;8.80;99.90;;;;;;4842883;29;19912;-63
2023/04/20 03:54:28;;;;;;;;;;;8.70;99.90;;;;;;4846132;29;19917;-64
2023/04/20 03:56:53;;;;;;;;;;;8.60;99.90;;;;;;4839526;29;19916;-64
2023/04/20 03:59:19;;;;;;;;;;;8.50;99.90;;;;;;4842616;29;20052;-64
2023/04/20 04:01:45;;;;;;;;;;;8.50;99.90;;;;;;4837599;29;19920;-66
2023/04/20 04:04:10;;;;;;;;;;;8.60;99.90;;;;;;4836577;29;20646;-63
2023/04/20 04:06:36;;;;;;;;;;;8.60;99.90;;;;;;4841911;29;20346;-63
2023/04/20 04:09:02;;;;;;;;;;;8.70;99.90;;;;;;4837664;29;19934;-64
2023/04/20 04:11:29;;;;;;;;;;;8.70;99.90;;;;;;4841651;29;19936;-63
2023/04/20 04:13:54;;;;;;;;;;;8.60;99.90;;;;;;4840622;29;19962;-63
2023/04/20 04:16:20;;;;;;;;;;;8.50;99.90;;;;;;4839322;29;20389;-64
2023/04/20 04:18:46;;;;;;;;;;;8.50;99.90;;;;;;4839170;29;20430;-63
2023/04/20 04:21:11;;;;;;;;;;;8.30;99.90;;;;;;4845404;29;19920;-63
2023/04/20 04:23:37;;;;;;;;;;;8.20;99.90;;;;;;4838372;29;19916;-64
2023/04/20 04:26:03;;;;;;;;;;;8.30;99.90;;;;;;4835317;29;19919;-63
2023/04/20 04:28:30;;;;;;;;;;;8.30;99.90;;;;;;4840235;29;19920;-63
2023/04/20 04:30:55;;;;;;;;;;;8.30;99.90;;;;;;4833469;29;19919;-63
2023/04/20 04:33:22;;;;;;;;;;;8.50;99.90;;;;;;4835380;29;19917;-63
2023/04/20 04:35:48;;;;;;;;;;;8.50;99.90;;;;;;4836008;29;19923;-63
2023/04/20 04:38:14;;;;;;;;;;;8.50;99.90;;;;;;4833593;29;19965;-62
2023/04/20 04:40:40;;;;;;;;;;;8.60;99.90;;;;;;4832610;29;19916;-63
2023/04/20 04:43:06;;;;;;;;;;;8.70;99.90;;;;;;4830876;29;19954;-63
2023/04/20 04:45:32;;;;;;;;;;;8.80;99.90;;;;;;4832838;29;19931;-62
2023/04/20 04:47:57;;;;;;;;;;;8.70;99.90;;;;;;4826675;29;19920;-62
2023/04/20 04:50:23;;;;;;;;;;;8.70;99.90;;;;;;4836570;29;19935;-62
2023/04/20 04:52:48;;;;;;;;;;;8.80;99.90;;;;;;4832652;29;19916;-62
2023/04/20 04:55:14;;;;;;;;;;;8.90;99.90;;;;;;4834370;29;19936;-63
2023/04/20 04:57:39;;;;;;;;;;;9.00;99.90;;;;;;4831588;29;19951;-62
2023/04/20 05:00:10;;;;;;;;;;;9.10;99.90;;;;;;4831274;29;20055;-62
2023/04/20 05:02:36;;;;;;;;;;;9.20;99.90;;;;;;4835590;29;19958;-62
2023/04/20 05:05:01;;;;;;;;;;;9.40;99.90;;;;;;4828767;29;19920;-63
2023/04/20 05:07:27;;;;;;;;;;;9.50;99.90;;;;;;4829047;29;19920;-62
2023/04/20 05:09:52;;;;;;;;;;;9.60;99.90;;;;;;4819803;29;19976;-62
2023/04/20 05:12:18;;;;;;;;;;;9.70;99.90;;;;;;4840686;29;19955;-62
2023/04/20 05:14:43;;;;;;;;;;;9.80;99.90;;;;;;4836755;29;19923;-62
2023/04/20 05:17:10;;;;;;;;;;;9.80;99.90;;;;;;4833048;29;19968;-62
2023/04/20 05:19:36;;;;;;;;;;;9.90;99.90;;;;;;4831785;29;20038;-62
2023/04/20 05:22:01;;;;;;;;;;;10.00;99.90;;;;;;4830845;29;19916;-62
2023/04/20 05:24:27;;;;;;;;;;;10.20;99.90;;;;;;4831778;29;20411;-62
2023/04/20 05:26:52;;;;;;;;;;;10.20;99.90;;;;;;4836301;29;19964;-62
2023/04/20 05:29:18;;;;;;;;;;;10.20;99.90;;;;;;4832544;29;20336;-62
2023/04/20 05:31:44;;;;;;;;;;;10.20;99.90;;;;;;4835105;29;19988;-61
2023/04/20 05:34:09;;;;;;;;;;;10.30;99.90;;;;;;4838597;29;19999;-63
2023/04/20 05:36:36;;;;;;;;;;;10.40;99.90;;;;;;4839885;29;19920;-63
2023/04/20 05:39:01;;;;;;;;;;;10.50;99.90;;;;;;4844627;29;19924;-63
2023/04/20 05:41:27;;;;;;;;;;;10.50;99.90;;;;;;4841090;29;19943;-63
2023/04/20 05:43:53;;;;;;;;;;;10.70;99.90;;;;;;4838613;29;19916;-63
2023/04/20 05:46:19;;;;;;;;;;;10.80;99.90;;;;;;4841205;29;19970;-62
2023/04/20 05:48:44;;;;;;;;;;;11.00;99.90;;;;;;4847229;29;19917;-63
2023/04/20 05:51:10;;;;;;;;;;;11.10;99.90;;;;;;4844025;29;19919;-63
2023/04/20 05:53:36;;;;;;;;;;;11.30;99.90;;;;;;4847076;29;19927;-62
2023/04/20 05:56:02;;;;;;;;;;;11.60;99.90;;;;;;4848371;29;19916;-62
2023/04/20 05:58:27;;;;;;;;;;;11.80;99.90;;;;;;4838957;29;19923;-63
2023/04/20 06:00:53;;;;;;;;;;;12.00;99.90;;;;;;4822184;29;19999;-63
2023/04/20 06:03:19;;;;;;;;;;;12.30;99.90;;;;;;4847460;29;19921;-63
2023/04/20 06:05:44;;;;;;;;;;;12.60;99.90;;;;;;4846602;29;19916;-63
2023/04/20 06:08:10;;;;;;;;;;;12.80;99.90;;;;;;4832410;29;19962;-63
2023/04/20 06:10:36;;;;;;;;;;;12.90;99.90;;;;;;4848564;29;19971;-63
2023/04/20 06:13:01;;;;;;;;;;;13.00;99.90;;;;;;4846537;29;19919;-63
2023/04/20 06:15:27;;;;;;;;;;;13.10;99.90;;;;;;4848522;29;19922;-63
2023/04/20 06:17:52;;;;;;;;;;;13.20;99.90;;;;;;4845826;29;20345;-63
2023/04/20 06:20:19;;;;;;;;;;;13.30;99.90;;;;;;4843277;29;19916;-63
2023/04/20 06:22:45;;;;;;;;;;;13.30;99.90;;;;;;4842301;29;19912;-63
2023/04/20 06:25:10;;;;;;;;;;;13.30;99.90;;;;;;4845567;29;19916;-63
2023/04/20 06:27:36;;;;;;;;;;;13.40;99.90;;;;;;4841747;29;19920;-63
2023/04/20 06:30:02;;;;;;;;;;;13.40;99.90;;;;;;4844806;29;20152;-62
2023/04/20 06:32:28;;;;;;;;;;;13.50;99.90;;;;;;4840277;29;20106;-63
2023/04/20 06:34:54;;;;;;;;;;;13.50;99.90;;;;;;4848009;29;20428;-63
2023/04/20 06:37:20;;;;;;;;;;;13.60;99.90;;;;;;4846646;29;19931;-63
2023/04/20 06:39:45;;;;;;;;;;;13.70;99.90;;;;;;4835901;29;19924;-63
2023/04/20 06:42:12;;;;;;;;;;;13.80;99.90;;;;;;4849505;29;19923;-63
2023/04/20 06:44:38;;;;;;;;;;;13.80;99.90;;;;;;4835038;29;19927;-63
2023/04/20 06:47:04;;;;;;;;;;;13.90;99.90;;;;;;4839418;29;19916;-63
2023/04/20 06:49:29;;;;;;;;;;;14.10;99.90;;;;;;4837482;29;19932;-63
2023/04/20 06:51:55;;;;;;;;;;;14.10;99.90;;;;;;4848628;29;19923;-63
2023/04/20 06:54:20;;;;;;;;;;;14.10;99.90;;;;;;4847439;29;19920;-63
2023/04/20 06:56:46;;;;;;;;;;;14.20;99.90;;;;;;4846266;29;20006;-63
2023/04/20 06:59:14;;;;;;;;;;;14.20;99.90;;;;;;4843637;29;19928;-63
2023/04/20 07:01:40;;;;;;;;;;;14.20;99.90;;;;;;4839384;29;19916;-63
2023/04/20 07:04:05;;;;;;;;;;;14.30;99.90;;;;;;4834706;29;19912;-62
2023/04/20 07:06:31;;;;;;;;;;;14.30;99.90;;;;;;4846300;29;19927;-63
2023/04/20 07:08:56;;;;;;;;;;;14.40;99.90;;;;;;4842736;29;19927;-64
2023/04/20 07:11:22;;;;;;;;;;;14.40;99.90;;;;;;4850135;29;19916;-63
2023/04/20 07:13:48;;;;;;;;;;;14.40;99.90;;;;;;4844345;29;19920;-63
2023/04/20 07:16:15;;;;;;;;;;;14.40;99.90;;;;;;4842586;29;19939;-63
2023/04/20 07:18:40;;;;;;;;;;;14.50;99.90;;;;;;4839537;29;19924;-63
2023/04/20 07:21:06;;;;;;;;;;;14.60;99.90;;;;;;4841739;29;19923;-62
2023/04/20 07:23:31;;;;;;;;;;;14.70;99.90;;;;;;4846251;29;19923;-62
2023/04/20 07:25:57;;;;;;;;;;;14.70;99.90;;;;;;4843840;29;20206;-62
2023/04/20 07:28:22;;;;;;;;;;;14.70;99.90;;;;;;4837741;29;19922;-62
2023/04/20 07:30:48;;;;;;;;;;;14.70;99.90;;;;;;4842056;29;20392;-62
2023/04/20 07:33:14;;;;;;;;;;;14.80;99.90;;;;;;4839088;29;19965;-63
2023/04/20 07:35:39;;;;;;;;;;;14.80;99.90;;;;;;4837285;29;20504;-62
2023/04/20 07:38:05;;;;;;;;;;;14.90;99.90;;;;;;4840980;29;20449;-63
2023/04/20 07:40:30;;;;;;;;;;;15.00;99.90;;;;;;4843491;29;20447;-63
2023/04/20 07:42:56;;;;;;;;;;;15.00;99.90;;;;;;4841859;29;20241;-63
2023/04/20 07:45:22;;;;;;;;;;;15.00;99.90;;;;;;4842079;29;19956;-63
2023/04/20 07:47:50;;;;;;;;;;;15.10;99.90;;;;;;4845183;29;19923;-63
2023/04/20 07:50:16;;;;;;;;;;;15.20;99.90;;;;;;4840128;29;19928;-63
2023/04/20 07:52:43;;;;;;;;;;;15.30;99.90;;;;;;4829411;29;19916;-63
2023/04/20 07:55:10;;;;;;;;;;;15.40;99.90;;;;;;4838428;29;20908;-63
2023/04/20 07:57:36;;;;;;;;;;;15.40;99.90;;;;;;4841440;29;20293;-62
2023/04/20 08:00:05;;;;;;;;;;;15.40;99.90;;;;;;4847361;29;19919;-63
2023/04/20 08:02:31;;;;;;;;;;;15.40;99.90;;;;;;4837391;29;19927;-63
2023/04/20 08:04:56;;;;;;;;;;;15.50;99.90;;;;;;4836984;29;21779;-63
2023/04/20 08:07:22;;;;;;;;;;;15.60;99.90;;;;;;4845371;29;19916;-63
2023/04/20 08:09:48;;;;;;;;;;;15.70;99.90;;;;;;4835807;29;19916;-63
2023/04/20 08:12:14;;;;;;;;;;;15.80;99.90;;;;;;4843717;29;19927;-62
2023/04/20 08:14:40;;;;;;;;;;;15.90;99.90;;;;;;4843510;29;19920;-64
2023/04/20 08:17:06;;;;;;;;;;;16.10;99.90;;;;;;4835844;29;19916;-63
2023/04/20 08:19:31;;;;;;;;;;;16.10;99.90;;;;;;4840958;29;19931;-63
2023/04/20 08:21:57;;;;;;;;;;;16.10;99.90;;;;;;4826237;29;20007;-63
2023/04/20 08:24:22;;;;;;;;;;;16.20;99.90;;;;;;4827462;29;19912;-62
2023/04/20 08:26:48;;;;;;;;;;;16.10;99.90;;;;;;4818345;29;19912;-64
2023/04/20 08:29:13;;;;;;;;;;;15.90;99.90;;;;;;4833257;29;19927;-63
2023/04/20 08:31:39;;;;;;;;;;;16.10;99.90;;;;;;4832951;29;20597;-62
2023/04/20 08:34:04;;;;;;;;;;;16.30;99.90;;;;;;4838671;29;20285;-62
2023/04/20 08:36:30;;;;;;;;;;;16.40;99.90;;;;;;4836949;29;20312;-63
2023/04/20 08:39:04;;;;;;;;;;;16.40;99.90;;;;;;4842276;29;20307;-64
2023/04/20 08:41:30;;;;;;;;;;;16.40;99.90;;;;;;4839151;29;19992;-62
2023/04/20 08:43:55;;;;;;;;;;;16.40;99.90;;;;;;4838354;29;20011;-62
2023/04/20 08:46:21;;;;;;;;;;;16.40;99.90;;;;;;4838684;29;19920;-62
2023/04/20 08:48:47;;;;;;;;;;;16.50;99.90;;;;;;4835656;29;20953;-63
2023/04/20 08:51:13;;;;;;;;;;;16.60;99.90;;;;;;4842250;29;19920;-62
2023/04/20 08:53:39;;;;;;;;;;;16.70;99.90;;;;;;4836834;29;20339;-63
2023/04/20 08:56:05;;;;;;;;;;;16.60;99.90;;;;;;4840395;29;20357;-62
2023/04/20 08:58:31;;;;;;;;;;;16.70;99.90;;;;;;4833631;29;20102;-62
2023/04/20 09:00:59;;;;;;;;;;;16.80;99.90;;;;;;4812242;29;20499;-62
2023/04/20 09:03:35;;;;;;;;;;;16.80;99.90;;;;;;4818005;29;19928;-62
2023/04/20 09:06:00;;;;;;;;;;;16.80;99.90;;;;;;4827588;29;20003;-62
2023/04/20 09:08:36;;;;;;;;;;;16.90;98.80;;;;;;4837548;29;19920;-62
2023/04/20 09:11:02;;;;;;;;;;;16.90;98.90;;;;;;4843033;29;19912;-62
2023/04/20 09:13:28;;;;;;;;;;;16.90;99.90;;;;;;4836747;29;19978;-62
2023/04/20 09:15:53;;;;;;;;;;;17.00;99.70;;;;;;4832693;29;19945;-62
2023/04/20 09:18:19;;;;;;;;;;;17.20;99.30;;;;;;4840844;29;20053;-63
2023/04/20 09:20:45;;;;;;;;;;;17.20;99.00;;;;;;4841411;29;19944;-63
2023/04/20 09:23:11;;;;;;;;;;;17.20;97.60;;;;;;4837714;29;20712;-62
2023/04/20 09:25:37;;;;;;;;;;;17.20;97.80;;;;;;4836184;29;19919;-62
2023/04/20 09:28:02;;;;;;;;;;;17.10;99.20;;;;;;4843904;29;19920;-62
2023/04/20 09:30:38;;;;;;;;;;;17.30;99.90;;;;;;4830754;29;20357;-62
2023/04/20 09:33:04;;;;;;;;;;;17.30;97.40;;;;;;4833623;29;19963;-62
2023/04/20 09:35:30;;;;;;;;;;;17.30;99.90;;;;;;4841827;29;19940;-62
2023/04/20 09:37:56;;;;;;;;;;;17.50;98.20;;;;;;4840529;29;19936;-62
2023/04/20 09:40:23;;;;;;;;;;;17.50;95.80;;;;;;4833434;29;19916;-62
2023/04/20 09:42:51;;;;;;;;;;;17.50;97.90;;;;;;4836553;29;19915;-62
2023/04/20 09:45:17;;;;;;;;;;;17.60;96.10;;;;;;4833739;29;19999;-62
2023/04/20 09:47:43;;;;;;;;;;;17.60;96.00;;;;;;4834862;29;19916;-62
2023/04/20 09:50:09;;;;;;;;;;;17.60;94.60;;;;;;4833154;29;20011;-62
2023/04/20 09:52:36;;;;;;;;;;;17.50;96.30;;;;;;4835545;29;19920;-62
2023/04/20 09:55:03;;;;;;;;;;;17.50;94.30;;;;;;4837369;29;19919;-62
2023/04/20 09:57:30;;;;;;;;;;;17.60;93.90;;;;;;4838899;29;19923;-62
2023/04/20 09:59:58;;;;;;;;;;;17.50;96.20;;;;;;4832863;29;19924;-62
2023/04/20 10:02:24;;;;;;;;;;;17.50;94.80;;;;;;4840456;29;19995;-62
2023/04/20 10:04:56;;;;;;;;;;;17.60;96.00;;;;;;4823449;29;19926;-62
2023/04/20 10:07:23;;;;;;;;;;;17.70;94.80;;;;;;4838264;29;19992;-62
2023/04/20 10:10:00;;;;;;;;;;;17.80;95.70;;;;;;4841191;29;19919;-62
2023/04/20 10:12:26;;;;;;;;;;;17.90;92.80;;;;;;4835238;29;19916;-62
2023/04/20 10:14:56;;;;;;;;;;;17.90;92.90;;;;;;4839494;29;20374;-62
2023/04/20 10:17:28;;;;;;;;;;;17.90;94.30;;;;;;4833140;29;19916;-62
2023/04/20 10:19:54;;;;;;;;;;;18.10;93.40;;;;;;4835017;29;19923;-62
2023/04/20 10:22:32;;;;;;;;;;;18.20;93.10;;;;;;4832615;29;19920;-62
2023/04/20 10:25:01;;;;;;;;;;;18.30;93.80;;;;;;4830588;29;20568;-62
2023/04/20 10:27:27;;;;;;;;;;;18.40;92.60;;;;;;4841272;29;20410;-62
2023/04/20 10:29:53;;;;;;;;;;;18.30;92.00;;;;;;4843637;29;19920;-62
2023/04/20 10:32:25;;;;;;;;;;;18.20;93.90;;;;;;4841808;29;19922;-62
2023/04/20 10:35:03;;;;;;;;;;;18.30;93.20;;;;;;4838548;29;19920;-62
2023/04/20 10:37:30;;;;;;;;;;;18.40;92.60;;;;;;4840751;29;19916;-62
2023/04/20 10:39:56;;;;;;;;;;;18.40;92.40;;;;;;4835544;29;19960;-62
2023/04/20 10:42:22;;;;;;;;;;;18.40;93.40;;;;;;4837219;29;20057;-62
2023/04/20 10:44:51;;;;;;;;;;;18.50;93.00;;;;;;4842951;29;19923;-62
2023/04/20 10:47:25;;;;;;;;;;;18.60;93.30;;;;;;4836504;29;20366;-62
2023/04/20 10:49:50;;;;;;;;;;;18.70;92.30;;;;;;4846159;29;19920;-62
2023/04/20 10:52:16;;;;;;;;;;;18.70;92.60;;;;;;4845985;29;19912;-62
2023/04/20 10:54:41;;;;;;;;;;;18.70;92.20;;;;;;4834085;29;20003;-62
2023/04/20 10:57:07;;;;;;;;;;;18.70;93.10;;;;;;4843601;29;19920;-62
2023/04/20 10:59:37;;;;;;;;;;;18.80;92.30;;;;;;4840277;29;20227;-62
2023/04/20 11:02:06;;;;;;;;;;;18.80;93.20;;;;;;4842345;29;19919;-63
2023/04/20 11:04:33;;;;;;;;;;;18.80;91.90;;;;;;4842091;29;19924;-63
2023/04/20 11:07:06;;;;;;;;;;;18.80;93.10;;;;;;4845339;29;19923;-63
2023/04/20 11:09:33;;;;;;;;;;;19.00;92.30;;;;;;4840206;29;19920;-63
2023/04/20 11:12:03;;;;;;;;;;;18.90;91.10;;;;;;4845669;29;19915;-63
2023/04/20 11:14:29;;;;;;;;;;;18.80;90.90;;;;;;4839738;29;20045;-63
2023/04/20 11:16:55;;;;;;;;;;;18.70;89.90;;;;;;4840399;29;19938;-63
2023/04/20 11:19:31;;;;;;;;;;;18.70;90.50;;;;;;4844023;29;19939;-63
2023/04/20 11:21:56;;;;;;;;;;;18.80;93.00;;;;;;4842808;29;19921;-63
2023/04/20 11:24:23;;;;;;;;;;;19.00;91.90;;;;;;4844415;29;19976;-63
2023/04/20 11:26:49;;;;;;;;;;;19.20;94.20;;;;;;4844297;29;20354;-63
2023/04/20 11:29:32;;;;;;;;;;;19.30;91.60;;;;;;4848700;29;19916;-63
2023/04/20 11:31:58;;;;;;;;;;;19.30;92.60;;;;;;4837770;29;19924;-63
2023/04/20 11:34:23;;;;;;;;;;;19.30;92.50;;;;;;4841508;29;19923;-63
2023/04/20 11:36:51;;;;;;;;;;;19.20;90.90;;;;;;4850741;29;20087;-63
2023/04/20 11:39:24;;;;;;;;;;;19.10;91.20;;;;;;4849906;29;19939;-63
2023/04/20 11:41:50;;;;;;;;;;;19.20;88.50;;;;;;4849243;29;20533;-62
2023/04/20 11:44:19;;;;;;;;;;;19.30;88.10;;;;;;4843541;29;20010;-63
2023/04/20 11:46:45;;;;;;;;;;;19.30;87.50;;;;;;4840047;29;19915;-62
2023/04/20 11:49:11;;;;;;;;;;;19.30;89.70;;;;;;4840962;29;19919;-62
2023/04/20 11:51:36;;;;;;;;;;;19.50;90.20;;;;;;4838037;29;19919;-63
2023/04/20 11:54:02;;;;;;;;;;;19.50;89.30;;;;;;4841373;29;19923;-62
2023/04/20 11:56:28;;;;;;;;;;;19.60;90.30;;;;;;4842794;29;20442;-62
2023/04/20 11:58:53;;;;;;;;;;;19.70;88.20;;;;;;4846985;29;19923;-63
2023/04/20 12:01:19;;;;;;;;;;;19.70;83.10;;;;;;4844578;29;20370;-63
2023/04/20 12:03:45;;;;;;;;;;;19.60;89.10;;;;;;4839154;29;19927;-63
2023/04/20 12:06:10;;;;;;;;;;;19.60;90.30;;;;;;4842312;29;19994;-63
2023/04/20 12:08:36;;;;;;;;;;;19.70;87.50;;;;;;4841971;29;19920;-63
2023/04/20 12:11:01;;;;;;;;;;;19.80;90.60;;;;;;4829789;29;21187;-63
2023/04/20 12:13:27;;;;;;;;;;;19.90;90.40;;;;;;4834167;29;19927;-63
2023/04/20 12:15:52;;;;;;;;;;;20.00;85.60;;;;;;4842745;29;20031;-63
2023/04/20 12:18:18;;;;;;;;;;;20.10;89.60;;;;;;4847852;29;20014;-63
2023/04/20 12:20:45;;;;;;;;;;;20.20;83.60;;;;;;4845892;29;19916;-62
2023/04/20 12:23:11;;;;;;;;;;;20.20;82.60;;;;;;4840660;29;19920;-63
2023/04/20 12:25:37;;;;;;;;;;;20.10;78.60;;;;;;4840468;29;19963;-63
2023/04/20 12:28:05;;;;;;;;;;;20.00;85.30;;;;;;4836464;29;19920;-62
2023/04/20 12:30:33;;;;;;;;;;;20.00;83.00;;;;;;4838212;29;20187;-62
2023/04/20 12:32:59;;;;;;;;;;;20.00;78.80;;;;;;4840901;29;20200;-62
2023/04/20 12:35:24;;;;;;;;;;;19.90;84.30;;;;;;4839663;29;19944;-62
2023/04/20 12:37:50;;;;;;;;;;;20.00;82.40;;;;;;4842892;29;19976;-62
2023/04/20 12:40:15;;;;;;;;;;;20.00;81.60;;;;;;4840595;29;19959;-62
2023/04/20 12:42:41;;;;;;;;;;;20.10;78.20;;;;;;4842454;29;20263;-62
2023/04/20 12:45:07;;;;;;;;;;;20.10;81.30;;;;;;4842522;29;20369;-64
2023/04/20 12:47:32;;;;;;;;;;;20.20;78.30;;;;;;4842182;29;19920;-63
2023/04/20 12:49:58;;;;;;;;;;;20.20;77.70;;;;;;4842056;29;19983;-62
2023/04/20 12:52:23;;;;;;;;;;;20.30;80.90;;;;;;4843526;29;19921;-63
2023/04/20 12:54:49;;;;;;;;;;;20.40;80.90;;;;;;4843285;29;20035;-63
2023/04/20 12:57:15;;;;;;;;;;;20.40;76.50;;;;;;4845946;29;19916;-63
2023/04/20 12:59:41;;;;;;;;;;;20.40;75.90;;;;;;4818489;29;19916;-63
2023/04/20 13:02:07;;;;;;;;;;;20.30;77.70;;;;;;4839008;29;19999;-63
2023/04/20 13:04:35;;;;;;;;;;;20.40;77.60;;;;;;4836341;29;20248;-63
2023/04/20 13:07:00;;;;;;;;;;;20.50;76.20;;;;;;4842133;29;19951;-63
2023/04/20 13:09:26;;;;;;;;;;;20.60;75.60;;;;;;4842688;29;20107;-63
2023/04/20 13:11:51;;;;;;;;;;;20.60;78.00;;;;;;4844985;29;20002;-64
2023/04/20 13:14:17;;;;;;;;;;;20.70;74.10;;;;;;4840038;29;19916;-64
2023/04/20 13:16:42;;;;;;;;;;;20.50;71.80;;;;;;4847085;29;19916;-63
2023/04/20 13:19:08;;;;;;;;;;;20.30;72.20;;;;;;4826791;29;19924;-63
2023/04/20 13:21:33;;;;;;;;;;;20.20;71.80;;;;;;4837831;29;19924;-64
2023/04/20 13:23:59;;;;;;;;;;;20.10;72.20;;;;;;4839284;29;19916;-64
2023/04/20 13:26:25;;;;;;;;;;;20.10;73.90;;;;;;4842568;29;19960;-63
2023/04/20 13:28:50;;;;;;;;;;;20.20;72.60;;;;;;4825665;29;19917;-64
2023/04/20 13:31:16;;;;;;;;;;;20.30;73.50;;;;;;4835495;29;19984;-63
2023/04/20 13:33:41;;;;;;;;;;;20.40;70.60;;;;;;4842436;29;19920;-63
2023/04/20 13:36:07;;;;;;;;;;;20.30;70.30;;;;;;4842619;29;19917;-62
2023/04/20 13:38:33;;;;;;;;;;;20.20;68.50;;;;;;4840143;29;20323;-63
2023/04/20 13:40:59;;;;;;;;;;;20.10;67.30;;;;;;4839086;29;19927;-63
2023/04/20 13:43:24;;;;;;;;;;;20.10;68.50;;;;;;4829847;29;19920;-64
2023/04/20 13:45:50;;;;;;;;;;;20.00;68.80;;;;;;4843867;29;20290;-64
2023/04/20 13:48:15;;;;;;;;;;;20.10;71.40;;;;;;4842688;29;19912;-63
2023/04/20 13:50:41;;;;;;;;;;;20.20;71.30;;;;;;4843331;29;20109;-63
2023/04/20 13:53:06;;;;;;;;;;;20.20;70.30;;;;;;4843564;29;19920;-63
2023/04/20 13:55:32;;;;;;;;;;;20.40;74.00;;;;;;4836813;29;20373;-64
2023/04/20 13:57:57;;;;;;;;;;;20.50;76.00;;;;;;4833108;29;20381;-63
2023/04/20 14:00:24;;;;;;;;;;;20.50;70.70;;;;;;4823895;29;19916;-64
2023/04/20 14:02:50;;;;;;;;;;;20.40;74.40;;;;;;4840408;29;19965;-62
2023/04/20 14:05:15;;;;;;;;;;;20.50;77.50;;;;;;4839005;29;19912;-62
2023/04/20 14:07:41;;;;;;;;;;;20.60;75.20;;;;;;4837989;29;19920;-63
2023/04/20 14:10:07;;;;;;;;;;;20.60;75.20;;;;;;4835510;29;19959;-64
2023/04/20 14:12:33;;;;;;;;;;;20.60;70.90;;;;;;4836320;29;19918;-62
2023/04/20 14:14:58;;;;;;;;;;;20.60;70.60;;;;;;4832580;29;19920;-62